sensor_id;sensor_type;location;lat;lon;timestamp;pressure;altitude;pressure_sealevel;temperature;humidity
54455;BME280;40364;52.270;10.546;2023-05-23T00:02:17;100265.78;;;28.60;65.82
54455;BME280;40364;52.270;10.546;2023-05-23T00:04:44;100271.38;;;28.64;63.90
54455;BME280;40364;52.270;10.546;2023-05-23T00:07:10;100275.72;;;28.87;62.66
54455;BME280;40364;52.270;10.546;2023-05-23T00:09:37;100274.31;;;27.93;67.25
54455;BME280;40364;52.270;10.546;2023-05-23T00:12:04;100269.69;;;27.95;67.83
54455;BME280;40364;52.270;10.546;2023-05-23T00:14:31;100261.47;;;28.56;64.55
54455;BME280;40364;52.270;10.546;2023-05-23T00:16:58;100252.13;;;28.15;65.55
54455;BME280;40364;52.270;10.546;2023-05-23T00:19:27;100248.25;;;28.00;68.01
54455;BME280;40364;52.270;10.546;2023-05-23T00:21:53;100248.47;;;27.52;68.95
54455;BME280;40364;52.270;10.546;2023-05-23T00:24:22;100239.81;;;27.96;68.28
54455;BME280;40364;52.270;10.546;2023-05-23T00:26:50;100246.31;;;27.35;71.20
54455;BME280;40364;52.270;10.546;2023-05-23T00:29:16;100247.47;;;27.99;67.79
54455;BME280;40364;52.270;10.546;2023-05-23T00:31:44;100242.84;;;28.51;64.77
54455;BME280;40364;52.270;10.546;2023-05-23T00:34:11;100260.78;;;28.24;65.24
54455;BME280;40364;52.270;10.546;2023-05-23T00:36:39;100260.41;;;27.51;71.48
54455;BME280;40364;52.270;10.546;2023-05-23T00:39:06;100264.59;;;27.59;70.94
54455;BME280;40364;52.270;10.546;2023-05-23T00:41:32;100257.53;;;27.51;71.04
54455;BME280;40364;52.270;10.546;2023-05-23T00:44:00;100264.94;;;26.23;79.42
54455;BME280;40364;52.270;10.546;2023-05-23T00:46:27;100277.63;;;27.60;72.12
54455;BME280;40364;52.270;10.546;2023-05-23T00:48:54;100265.78;;;27.05;73.82
54455;BME280;40364;52.270;10.546;2023-05-23T00:51:21;100268.63;;;27.05;74.58
54455;BME280;40364;52.270;10.546;2023-05-23T00:53:49;100272.56;;;26.99;75.47
54455;BME280;40364;52.270;10.546;2023-05-23T00:56:16;100273.28;;;27.34;70.63
54455;BME280;40364;52.270;10.546;2023-05-23T00:58:42;100278.69;;;27.84;67.39
54455;BME280;40364;52.270;10.546;2023-05-23T01:01:09;100277.16;;;26.83;73.86
54455;BME280;40364;52.270;10.546;2023-05-23T01:03:36;100275.31;;;26.90;73.40
54455;BME280;40364;52.270;10.546;2023-05-23T01:06:02;100278.00;;;27.06;72.66
54455;BME280;40364;52.270;10.546;2023-05-23T01:08:29;100287.81;;;27.61;69.91
54455;BME280;40364;52.270;10.546;2023-05-23T01:11:00;100291.63;;;27.24;73.01
54455;BME280;40364;52.270;10.546;2023-05-23T01:13:33;100284.41;;;27.10;74.30
54455;BME280;40364;52.270;10.546;2023-05-23T01:16:06;100295.25;;;27.15;73.79
54455;BME280;40364;52.270;10.546;2023-05-23T01:18:39;100287.34;;;26.72;76.90
54455;BME280;40364;52.270;10.546;2023-05-23T01:21:10;100285.94;;;27.45;71.71
54455;BME280;40364;52.270;10.546;2023-05-23T01:24:14;100276.72;;;28.43;65.95
54455;BME280;40364;52.270;10.546;2023-05-23T01:27:00;100283.03;;;26.67;76.98
54455;BME280;40364;52.270;10.546;2023-05-23T01:29:35;100288.38;;;27.56;69.97
54455;BME280;40364;52.270;10.546;2023-05-23T01:32:06;100282.84;;;28.73;62.50
54455;BME280;40364;52.270;10.546;2023-05-23T01:34:35;100283.97;;;27.86;66.83
54455;BME280;40364;52.270;10.546;2023-05-23T01:37:07;100285.34;;;26.60;72.49
54455;BME280;40364;52.270;10.546;2023-05-23T01:39:33;100280.94;;;25.95;78.59
54455;BME280;40364;52.270;10.546;2023-05-23T01:42:00;100278.50;;;27.70;68.40
54455;BME280;40364;52.270;10.546;2023-05-23T01:44:27;100281.69;;;27.50;68.44
54455;BME280;40364;52.270;10.546;2023-05-23T01:46:55;100279.75;;;27.47;69.08
54455;BME280;40364;52.270;10.546;2023-05-23T01:49:22;100281.25;;;26.95;70.81
54455;BME280;40364;52.270;10.546;2023-05-23T01:51:49;100284.84;;;26.74;69.73
54455;BME280;40364;52.270;10.546;2023-05-23T01:54:16;100283.13;;;27.33;69.54
54455;BME280;40364;52.270;10.546;2023-05-23T01:56:45;100290.88;;;27.45;65.85
54455;BME280;40364;52.270;10.546;2023-05-23T01:59:13;100293.72;;;27.45;65.92
54455;BME280;40364;52.270;10.546;2023-05-23T02:01:40;100289.31;;;27.53;66.02
54455;BME280;40364;52.270;10.546;2023-05-23T02:04:08;100287.94;;;27.36;67.40
54455;BME280;40364;52.270;10.546;2023-05-23T02:06:35;100288.53;;;26.62;71.90
54455;BME280;40364;52.270;10.546;2023-05-23T02:09:01;100286.75;;;27.68;64.78
54455;BME280;40364;52.270;10.546;2023-05-23T02:11:28;100287.59;;;27.77;64.27
54455;BME280;40364;52.270;10.546;2023-05-23T02:13:54;100288.38;;;27.56;64.33
54455;BME280;40364;52.270;10.546;2023-05-23T02:16:21;100285.16;;;26.41;69.47
54455;BME280;40364;52.270;10.546;2023-05-23T02:18:50;100288.34;;;26.31;71.19
54455;BME280;40364;52.270;10.546;2023-05-23T02:21:21;100286.78;;;27.55;66.13
54455;BME280;40364;52.270;10.546;2023-05-23T02:23:48;100284.19;;;28.01;62.66
54455;BME280;40364;52.270;10.546;2023-05-23T02:26:15;100284.06;;;26.61;68.12
54455;BME280;40364;52.270;10.546;2023-05-23T02:28:42;100283.09;;;26.89;66.13
54455;BME280;40364;52.270;10.546;2023-05-23T02:31:08;100279.09;;;27.96;61.61
54455;BME280;40364;52.270;10.546;2023-05-23T02:33:35;100278.63;;;26.88;66.56
54455;BME280;40364;52.270;10.546;2023-05-23T02:36:02;100284.22;;;27.48;64.61
54455;BME280;40364;52.270;10.546;2023-05-23T02:38:30;100278.66;;;26.75;67.83
54455;BME280;40364;52.270;10.546;2023-05-23T02:40:57;100283.88;;;26.55;69.71
54455;BME280;40364;52.270;10.546;2023-05-23T02:43:25;100293.69;;;27.01;66.32
54455;BME280;40364;52.270;10.546;2023-05-23T02:45:51;100298.00;;;26.71;67.90
54455;BME280;40364;52.270;10.546;2023-05-23T02:48:18;100288.22;;;26.47;69.98
54455;BME280;40364;52.270;10.546;2023-05-23T02:50:44;100288.09;;;24.88;81.45
54455;BME280;40364;52.270;10.546;2023-05-23T02:53:11;100297.81;;;26.28;72.01
54455;BME280;40364;52.270;10.546;2023-05-23T02:55:39;100287.09;;;25.94;72.80
54455;BME280;40364;52.270;10.546;2023-05-23T02:58:07;100282.84;;;25.86;70.71
54455;BME280;40364;52.270;10.546;2023-05-23T03:00:34;100292.78;;;26.19;71.76
54455;BME280;40364;52.270;10.546;2023-05-23T03:03:01;100300.16;;;24.63;79.72
54455;BME280;40364;52.270;10.546;2023-05-23T03:05:28;100296.56;;;25.36;75.74
54455;BME280;40364;52.270;10.546;2023-05-23T03:07:54;100297.81;;;25.90;70.70
54455;BME280;40364;52.270;10.546;2023-05-23T03:10:22;100308.19;;;25.83;69.76
54455;BME280;40364;52.270;10.546;2023-05-23T03:12:50;100307.59;;;25.76;71.89
54455;BME280;40364;52.270;10.546;2023-05-23T03:15:16;100311.97;;;24.94;75.30
54455;BME280;40364;52.270;10.546;2023-05-23T03:17:43;100315.19;;;24.63;75.07
54455;BME280;40364;52.270;10.546;2023-05-23T03:20:10;100303.44;;;24.77;72.50
54455;BME280;40364;52.270;10.546;2023-05-23T03:22:37;100312.44;;;24.60;73.55
54455;BME280;40364;52.270;10.546;2023-05-23T03:25:04;100316.59;;;25.33;69.98
54455;BME280;40364;52.270;10.546;2023-05-23T03:27:31;100319.13;;;25.14;69.39
54455;BME280;40364;52.270;10.546;2023-05-23T03:29:59;100313.81;;;25.58;66.20
54455;BME280;40364;52.270;10.546;2023-05-23T03:32:25;100318.09;;;25.08;66.45
54455;BME280;40364;52.270;10.546;2023-05-23T03:34:52;100323.56;;;25.32;65.36
54455;BME280;40364;52.270;10.546;2023-05-23T03:37:19;100319.59;;;24.15;69.78
54455;BME280;40364;52.270;10.546;2023-05-23T03:39:45;100329.72;;;24.36;68.80
54455;BME280;40364;52.270;10.546;2023-05-23T03:42:12;100335.69;;;24.06;70.02
54455;BME280;40364;52.270;10.546;2023-05-23T03:44:39;100341.97;;;23.97;71.24
54455;BME280;40364;52.270;10.546;2023-05-23T03:47:07;100336.88;;;24.25;72.90
54455;BME280;40364;52.270;10.546;2023-05-23T03:49:33;100340.75;;;24.67;66.22
54455;BME280;40364;52.270;10.546;2023-05-23T03:52:00;100337.16;;;24.30;68.79
54455;BME280;40364;52.270;10.546;2023-05-23T03:54:26;100344.09;;;24.78;66.38
54455;BME280;40364;52.270;10.546;2023-05-23T03:56:53;100345.88;;;25.62;62.29
54455;BME280;40364;52.270;10.546;2023-05-23T03:59:20;100338.94;;;26.43;58.26
54455;BME280;40364;52.270;10.546;2023-05-23T04:01:46;100345.66;;;26.11;57.48
54455;BME280;40364;52.270;10.546;2023-05-23T04:04:14;100340.84;;;26.08;59.95
54455;BME280;40364;52.270;10.546;2023-05-23T04:06:42;100345.91;;;24.56;63.54
54455;BME280;40364;52.270;10.546;2023-05-23T04:09:09;100347.59;;;24.53;64.95
54455;BME280;40364;52.270;10.546;2023-05-23T04:11:36;100346.81;;;26.26;56.45
54455;BME280;40364;52.270;10.546;2023-05-23T04:14:02;100355.97;;;26.59;55.58
54455;BME280;40364;52.270;10.546;2023-05-23T04:16:29;100346.38;;;25.32;59.75
54455;BME280;40364;52.270;10.546;2023-05-23T04:18:57;100350.81;;;24.19;64.88
54455;BME280;40364;52.270;10.546;2023-05-23T04:21:25;100354.13;;;26.53;55.83
54455;BME280;40364;52.270;10.546;2023-05-23T04:23:52;100354.47;;;26.29;55.09
54455;BME280;40364;52.270;10.546;2023-05-23T04:26:18;100358.66;;;26.12;56.46
54455;BME280;40364;52.270;10.546;2023-05-23T04:28:45;100358.25;;;25.43;57.74
54455;BME280;40364;52.270;10.546;2023-05-23T04:31:13;100360.72;;;25.28;59.18
54455;BME280;40364;52.270;10.546;2023-05-23T04:33:39;100361.38;;;24.38;62.67
54455;BME280;40364;52.270;10.546;2023-05-23T04:36:07;100360.88;;;24.76;61.01
54455;BME280;40364;52.270;10.546;2023-05-23T04:38:36;100359.44;;;25.58;57.86
54455;BME280;40364;52.270;10.546;2023-05-23T04:41:05;100365.91;;;24.84;59.86
54455;BME280;40364;52.270;10.546;2023-05-23T04:43:34;100361.06;;;25.59;55.96
54455;BME280;40364;52.270;10.546;2023-05-23T04:46:01;100359.06;;;24.49;59.43
54455;BME280;40364;52.270;10.546;2023-05-23T04:48:28;100360.31;;;24.48;58.47
54455;BME280;40364;52.270;10.546;2023-05-23T04:50:55;100356.53;;;25.74;55.36
54455;BME280;40364;52.270;10.546;2023-05-23T04:53:29;100354.19;;;24.66;59.01
54455;BME280;40364;52.270;10.546;2023-05-23T04:55:57;100364.84;;;24.78;57.47
54455;BME280;40364;52.270;10.546;2023-05-23T04:58:24;100361.03;;;24.36;60.05
54455;BME280;40364;52.270;10.546;2023-05-23T05:00:50;100358.25;;;25.14;57.07
54455;BME280;40364;52.270;10.546;2023-05-23T05:03:17;100366.66;;;25.63;54.24
54455;BME280;40364;52.270;10.546;2023-05-23T05:05:44;100367.41;;;25.22;56.62
54455;BME280;40364;52.270;10.546;2023-05-23T05:08:11;100362.28;;;25.87;53.52
54455;BME280;40364;52.270;10.546;2023-05-23T05:10:39;100359.03;;;25.14;57.26
54455;BME280;40364;52.270;10.546;2023-05-23T05:13:07;100368.25;;;25.93;54.91
54455;BME280;40364;52.270;10.546;2023-05-23T05:15:33;100370.28;;;24.89;55.60
54455;BME280;40364;52.270;10.546;2023-05-23T05:18:00;100362.94;;;25.49;56.07
54455;BME280;40364;52.270;10.546;2023-05-23T05:20:27;100360.13;;;26.04;54.19
54455;BME280;40364;52.270;10.546;2023-05-23T05:22:56;100370.31;;;26.81;53.13
54455;BME280;40364;52.270;10.546;2023-05-23T05:25:23;100363.69;;;25.95;53.83
54455;BME280;40364;52.270;10.546;2023-05-23T05:27:51;100364.56;;;25.50;55.23
54455;BME280;40364;52.270;10.546;2023-05-23T05:30:19;100364.94;;;25.94;55.76
54455;BME280;40364;52.270;10.546;2023-05-23T05:32:46;100360.25;;;26.13;54.24
54455;BME280;40364;52.270;10.546;2023-05-23T05:35:12;100362.78;;;26.11;53.36
54455;BME280;40364;52.270;10.546;2023-05-23T05:37:39;100355.47;;;25.27;56.71
54455;BME280;40364;52.270;10.546;2023-05-23T05:40:06;100353.59;;;25.49;56.10
54455;BME280;40364;52.270;10.546;2023-05-23T05:42:34;100359.88;;;25.86;54.33
54455;BME280;40364;52.270;10.546;2023-05-23T05:45:00;100365.13;;;25.87;54.82
54455;BME280;40364;52.270;10.546;2023-05-23T05:47:28;100361.28;;;24.91;59.28
54455;BME280;40364;52.270;10.546;2023-05-23T05:49:55;100375.31;;;27.02;51.89
54455;BME280;40364;52.270;10.546;2023-05-23T05:52:21;100368.44;;;25.86;54.83
54455;BME280;40364;52.270;10.546;2023-05-23T05:54:48;100364.41;;;26.50;53.57
54455;BME280;40364;52.270;10.546;2023-05-23T05:57:15;100364.16;;;26.19;52.90
54455;BME280;40364;52.270;10.546;2023-05-23T05:59:41;100364.38;;;25.29;55.81
54455;BME280;40364;52.270;10.546;2023-05-23T06:02:08;100363.47;;;26.15;52.85
54455;BME280;40364;52.270;10.546;2023-05-23T06:04:36;100361.09;;;26.39;52.79
54455;BME280;40364;52.270;10.546;2023-05-23T06:07:02;100375.56;;;25.36;54.64
54455;BME280;40364;52.270;10.546;2023-05-23T06:09:29;100371.72;;;24.65;59.60
54455;BME280;40364;52.270;10.546;2023-05-23T06:11:56;100371.25;;;24.34;62.63
54455;BME280;40364;52.270;10.546;2023-05-23T06:14:22;100374.78;;;25.64;56.52
54455;BME280;40364;52.270;10.546;2023-05-23T06:16:49;100366.59;;;25.66;55.68
54455;BME280;40364;52.270;10.546;2023-05-23T06:19:16;100367.44;;;24.57;59.74
54455;BME280;40364;52.270;10.546;2023-05-23T06:21:44;100373.53;;;25.36;57.80
54455;BME280;40364;52.270;10.546;2023-05-23T06:24:10;100365.81;;;24.03;61.61
54455;BME280;40364;52.270;10.546;2023-05-23T06:26:37;100366.94;;;25.52;56.64
54455;BME280;40364;52.270;10.546;2023-05-23T06:29:03;100376.41;;;25.65;56.15
54455;BME280;40364;52.270;10.546;2023-05-23T06:31:30;100369.06;;;25.06;60.24
54455;BME280;40364;52.270;10.546;2023-05-23T06:33:56;100365.69;;;23.91;66.24
54455;BME280;40364;52.270;10.546;2023-05-23T06:36:23;100369.50;;;24.20;67.58
54455;BME280;40364;52.270;10.546;2023-05-23T06:38:51;100359.63;;;23.89;68.40
54455;BME280;40364;52.270;10.546;2023-05-23T06:41:18;100364.31;;;24.67;63.91
54455;BME280;40364;52.270;10.546;2023-05-23T06:43:44;100374.09;;;23.58;70.98
54455;BME280;40364;52.270;10.546;2023-05-23T06:46:11;100367.97;;;23.60;70.68
54455;BME280;40364;52.270;10.546;2023-05-23T06:48:37;100368.94;;;24.45;65.55
54455;BME280;40364;52.270;10.546;2023-05-23T06:51:04;100371.19;;;23.62;71.48
54455;BME280;40364;52.270;10.546;2023-05-23T06:53:31;100353.19;;;25.05;65.10
54455;BME280;40364;52.270;10.546;2023-05-23T06:55:59;100367.19;;;23.36;72.16
54455;BME280;40364;52.270;10.546;2023-05-23T06:58:25;100370.31;;;20.40;100.00
54455;BME280;40364;52.270;10.546;2023-05-23T07:00:52;100358.34;;;20.11;100.00
54455;BME280;40364;52.270;10.546;2023-05-23T07:03:18;100354.50;;;19.80;100.00
54455;BME280;40364;52.270;10.546;2023-05-23T07:05:45;100365.97;;;20.18;100.00
54455;BME280;40364;52.270;10.546;2023-05-23T07:08:12;100363.13;;;20.18;100.00
54455;BME280;40364;52.270;10.546;2023-05-23T07:10:38;100362.50;;;20.55;100.00
54455;BME280;40364;52.270;10.546;2023-05-23T07:13:07;100362.56;;;19.82;100.00
54455;BME280;40364;52.270;10.546;2023-05-23T07:15:34;100367.63;;;21.53;100.00
54455;BME280;40364;52.270;10.546;2023-05-23T07:18:00;100372.34;;;22.78;100.00
54455;BME280;40364;52.270;10.546;2023-05-23T07:20:27;100368.53;;;23.51;81.28
54455;BME280;40364;52.270;10.546;2023-05-23T07:22:54;100361.38;;;24.55;75.07
54455;BME280;40364;52.270;10.546;2023-05-23T07:25:21;100370.50;;;25.56;65.76
54455;BME280;40364;52.270;10.546;2023-05-23T07:27:49;100364.69;;;25.02;67.87
54455;BME280;40364;52.270;10.546;2023-05-23T07:30:20;100367.09;;;23.82;75.26
54455;BME280;40364;52.270;10.546;2023-05-23T07:32:47;100370.00;;;24.35;72.45
54455;BME280;40364;52.270;10.546;2023-05-23T07:35:13;100369.66;;;24.49;70.67
54455;BME280;40364;52.270;10.546;2023-05-23T07:37:41;100364.22;;;24.02;70.96
54455;BME280;40364;52.270;10.546;2023-05-23T07:40:08;100364.66;;;24.53;70.83
54455;BME280;40364;52.270;10.546;2023-05-23T07:42:34;100363.00;;;24.72;67.94
54455;BME280;40364;52.270;10.546;2023-05-23T07:45:01;100372.00;;;20.24;100.00
54455;BME280;40364;52.270;10.546;2023-05-23T07:47:29;100369.41;;;20.50;100.00
54455;BME280;40364;52.270;10.546;2023-05-23T07:49:56;100368.97;;;19.90;100.00
54455;BME280;40364;52.270;10.546;2023-05-23T07:52:23;100367.56;;;20.78;100.00
54455;BME280;40364;52.270;10.546;2023-05-23T07:54:50;100369.44;;;25.21;71.94
54455;BME280;40364;52.270;10.546;2023-05-23T07:57:16;100374.97;;;25.12;69.99
54455;BME280;40364;52.270;10.546;2023-05-23T07:59:43;100379.91;;;24.63;73.80
54455;BME280;40364;52.270;10.546;2023-05-23T08:02:09;100373.66;;;24.51;73.16
54455;BME280;40364;52.270;10.546;2023-05-23T08:04:37;100374.31;;;22.81;84.01
54455;BME280;40364;52.270;10.546;2023-05-23T08:07:04;100381.22;;;22.80;82.72
54455;BME280;40364;52.270;10.546;2023-05-23T08:09:32;100382.81;;;24.59;71.16
54455;BME280;40364;52.270;10.546;2023-05-23T08:11:59;100383.22;;;24.25;75.21
54455;BME280;40364;52.270;10.546;2023-05-23T08:14:25;100394.56;;;24.61;72.88
54455;BME280;40364;52.270;10.546;2023-05-23T08:16:52;100388.59;;;24.03;76.81
54455;BME280;40364;52.270;10.546;2023-05-23T08:19:19;100389.31;;;24.07;74.16
54455;BME280;40364;52.270;10.546;2023-05-23T08:21:47;100398.59;;;20.40;100.00
54455;BME280;40364;52.270;10.546;2023-05-23T08:24:13;100405.25;;;20.02;100.00
54455;BME280;40364;52.270;10.546;2023-05-23T08:26:40;100403.03;;;19.54;100.00
54455;BME280;40364;52.270;10.546;2023-05-23T08:29:06;100399.09;;;21.93;93.56
54455;BME280;40364;52.270;10.546;2023-05-23T08:31:34;100399.91;;;23.01;81.95
54455;BME280;40364;52.270;10.546;2023-05-23T08:34:01;100411.59;;;22.83;82.66
54455;BME280;40364;52.270;10.546;2023-05-23T08:36:27;100408.97;;;24.18;73.21
54455;BME280;40364;52.270;10.546;2023-05-23T08:38:55;100420.84;;;23.10;83.08
54455;BME280;40364;52.270;10.546;2023-05-23T08:41:23;100420.38;;;23.59;79.55
54455;BME280;40364;52.270;10.546;2023-05-23T08:43:51;100432.16;;;24.16;72.04
54455;BME280;40364;52.270;10.546;2023-05-23T08:46:18;100432.19;;;23.57;74.10
54455;BME280;40364;52.270;10.546;2023-05-23T08:48:50;100432.53;;;22.93;79.49
54455;BME280;40364;52.270;10.546;2023-05-23T08:51:20;100431.69;;;24.02;74.00
54455;BME280;40364;52.270;10.546;2023-05-23T08:53:47;100442.91;;;23.69;74.97
54455;BME280;40364;52.270;10.546;2023-05-23T08:56:16;100436.81;;;24.46;71.93
54455;BME280;40364;52.270;10.546;2023-05-23T08:58:44;100439.25;;;20.64;100.00
54455;BME280;40364;52.270;10.546;2023-05-23T09:01:12;100442.19;;;19.41;100.00
54455;BME280;40364;52.270;10.546;2023-05-23T09:03:39;100447.47;;;18.86;100.00
54455;BME280;40364;52.270;10.546;2023-05-23T09:06:07;100461.94;;;18.52;100.00
54455;BME280;40364;52.270;10.546;2023-05-23T09:08:34;100445.81;;;18.57;100.00
54455;BME280;40364;52.270;10.546;2023-05-23T09:11:02;100465.25;;;22.47;84.71
54455;BME280;40364;52.270;10.546;2023-05-23T09:13:30;100470.19;;;22.70;82.07
54455;BME280;40364;52.270;10.546;2023-05-23T09:16:01;100473.06;;;22.93;79.64
54455;BME280;40364;52.270;10.546;2023-05-23T09:18:32;100474.31;;;22.35;83.17
54455;BME280;40364;52.270;10.546;2023-05-23T09:20:59;100472.25;;;22.39;83.52
54455;BME280;40364;52.270;10.546;2023-05-23T09:23:28;100483.28;;;23.61;72.04
54455;BME280;40364;52.270;10.546;2023-05-23T09:25:55;100478.59;;;22.50;80.80
54455;BME280;40364;52.270;10.546;2023-05-23T09:28:22;100482.78;;;22.08;79.69
54455;BME280;40364;52.270;10.546;2023-05-23T09:30:56;100482.25;;;23.04;74.64
54455;BME280;40364;52.270;10.546;2023-05-23T09:33:28;100475.13;;;22.35;78.53
54455;BME280;40364;52.270;10.546;2023-05-23T09:35:54;100491.03;;;22.60;75.62
54455;BME280;40364;52.270;10.546;2023-05-23T09:38:23;100494.50;;;24.11;68.44
54455;BME280;40364;52.270;10.546;2023-05-23T09:40:50;100496.72;;;23.60;67.27
54455;BME280;40364;52.270;10.546;2023-05-23T09:43:20;100490.88;;;23.67;68.17
54455;BME280;40364;52.270;10.546;2023-05-23T09:45:47;100493.09;;;22.86;72.52
54455;BME280;40364;52.270;10.546;2023-05-23T09:48:15;100492.41;;;23.02;70.68
54455;BME280;40364;52.270;10.546;2023-05-23T09:50:44;100499.69;;;22.79;72.49
54455;BME280;40364;52.270;10.546;2023-05-23T09:53:11;100506.19;;;23.27;72.63
54455;BME280;40364;52.270;10.546;2023-05-23T09:55:38;100502.00;;;24.21;65.24
54455;BME280;40364;52.270;10.546;2023-05-23T09:58:07;100509.19;;;22.35;77.36
54455;BME280;40364;52.270;10.546;2023-05-23T10:00:34;100506.16;;;21.40;85.93
54455;BME280;40364;52.270;10.546;2023-05-23T10:03:08;100514.69;;;22.49;78.03
54455;BME280;40364;52.270;10.546;2023-05-23T10:05:39;100521.69;;;23.92;72.19
54455;BME280;40364;52.270;10.546;2023-05-23T10:08:10;100525.28;;;23.53;73.92
54455;BME280;40364;52.270;10.546;2023-05-23T10:11:14;100529.72;;;22.46;81.60
54455;BME280;40364;52.270;10.546;2023-05-23T10:13:55;100527.25;;;23.06;79.62
54455;BME280;40364;52.270;10.546;2023-05-23T10:16:27;100531.38;;;22.44;83.99
54455;BME280;40364;52.270;10.546;2023-05-23T10:18:59;100532.47;;;22.54;83.10
54455;BME280;40364;52.270;10.546;2023-05-23T10:21:29;100547.59;;;22.74;82.11
54455;BME280;40364;52.270;10.546;2023-05-23T10:23:58;100540.53;;;21.46;93.25
54455;BME280;40364;52.270;10.546;2023-05-23T10:26:26;100544.53;;;21.93;87.41
54455;BME280;40364;52.270;10.546;2023-05-23T10:28:53;100546.34;;;21.73;89.88
54455;BME280;40364;52.270;10.546;2023-05-23T10:31:20;100551.47;;;21.44;90.11
54455;BME280;40364;52.270;10.546;2023-05-23T10:33:53;100555.03;;;21.96;92.22
54455;BME280;40364;52.270;10.546;2023-05-23T10:36:26;100561.22;;;22.25;83.71
54455;BME280;40364;52.270;10.546;2023-05-23T10:39:03;100563.59;;;21.48;90.96
54455;BME280;40364;52.270;10.546;2023-05-23T10:41:46;100557.66;;;20.73;95.47
54455;BME280;40364;52.270;10.546;2023-05-23T10:44:19;100576.03;;;17.86;100.00
54455;BME280;40364;52.270;10.546;2023-05-23T10:46:50;100575.50;;;21.29;100.00
54455;BME280;40364;52.270;10.546;2023-05-23T10:49:17;100575.84;;;22.20;89.15
54455;BME280;40364;52.270;10.546;2023-05-23T10:51:48;100588.66;;;22.66;85.10
54455;BME280;40364;52.270;10.546;2023-05-23T10:54:17;100586.38;;;21.37;92.63
54455;BME280;40364;52.270;10.546;2023-05-23T10:56:44;100594.66;;;22.03;86.97
54455;BME280;40364;52.270;10.546;2023-05-23T10:59:19;100588.38;;;21.81;87.81
54455;BME280;40364;52.270;10.546;2023-05-23T11:01:46;100590.63;;;22.38;83.42
54455;BME280;40364;52.270;10.546;2023-05-23T11:04:24;100599.72;;;23.17;76.95
54455;BME280;40364;52.270;10.546;2023-05-23T11:06:52;100595.88;;;22.40;81.61
54455;BME280;40364;52.270;10.546;2023-05-23T11:09:20;100605.69;;;20.87;87.81
54455;BME280;40364;52.270;10.546;2023-05-23T11:11:51;100608.38;;;21.67;87.61
54455;BME280;40364;52.270;10.546;2023-05-23T11:14:18;100623.69;;;21.73;84.50
54455;BME280;40364;52.270;10.546;2023-05-23T11:16:46;100622.47;;;20.39;92.63
54455;BME280;40364;52.270;10.546;2023-05-23T11:19:23;100617.16;;;21.32;85.32
54455;BME280;40364;52.270;10.546;2023-05-23T11:21:53;100610.38;;;21.70;83.45
54455;BME280;40364;52.270;10.546;2023-05-23T11:24:22;100612.16;;;21.50;85.27
54455;BME280;40364;52.270;10.546;2023-05-23T11:26:53;100620.47;;;21.16;87.56
54455;BME280;40364;52.270;10.546;2023-05-23T11:29:24;100631.44;;;22.51;74.41
54455;BME280;40364;52.270;10.546;2023-05-23T11:31:51;100642.53;;;21.98;78.99
54455;BME280;40364;52.270;10.546;2023-05-23T11:34:18;100641.00;;;20.58;87.68
54455;BME280;40364;52.270;10.546;2023-05-23T11:36:44;100636.22;;;21.28;84.37
54455;BME280;40364;52.270;10.546;2023-05-23T11:39:12;100641.81;;;20.55;87.96
54455;BME280;40364;52.270;10.546;2023-05-23T11:41:41;100639.06;;;21.24;86.20
54455;BME280;40364;52.270;10.546;2023-05-23T11:44:11;100638.41;;;20.95;84.23
54455;BME280;40364;52.270;10.546;2023-05-23T11:46:38;100645.13;;;21.19;83.17
54455;BME280;40364;52.270;10.546;2023-05-23T11:49:09;100657.66;;;21.80;80.06
54455;BME280;40364;52.270;10.546;2023-05-23T11:51:36;100662.97;;;21.12;77.44
54455;BME280;40364;52.270;10.546;2023-05-23T11:54:03;100665.28;;;21.91;77.72
54455;BME280;40364;52.270;10.546;2023-05-23T11:56:31;100677.91;;;21.16;79.45
54455;BME280;40364;52.270;10.546;2023-05-23T11:59:05;100699.09;;;20.87;78.03
54455;BME280;40364;52.270;10.546;2023-05-23T12:01:32;100678.63;;;20.47;81.93
54455;BME280;40364;52.270;10.546;2023-05-23T12:03:58;100682.50;;;20.96;81.13
54455;BME280;40364;52.270;10.546;2023-05-23T12:06:25;100679.19;;;21.08;76.87
54455;BME280;40364;52.270;10.546;2023-05-23T12:08:52;100678.19;;;20.60;79.62
54455;BME280;40364;52.270;10.546;2023-05-23T12:11:19;100698.84;;;20.46;77.33
54455;BME280;40364;52.270;10.546;2023-05-23T12:13:48;100692.31;;;20.70;80.08
54455;BME280;40364;52.270;10.546;2023-05-23T12:16:16;100694.72;;;20.75;79.11
54455;BME280;40364;52.270;10.546;2023-05-23T12:18:42;100688.94;;;22.18;70.73
54455;BME280;40364;52.270;10.546;2023-05-23T12:21:09;100698.56;;;21.13;73.24
54455;BME280;40364;52.270;10.546;2023-05-23T12:23:36;100702.88;;;21.43;72.82
54455;BME280;40364;52.270;10.546;2023-05-23T12:26:04;100701.91;;;20.94;74.28
54455;BME280;40364;52.270;10.546;2023-05-23T12:28:35;100699.91;;;20.91;73.19
54455;BME280;40364;52.270;10.546;2023-05-23T12:31:10;100704.47;;;21.47;70.92
54455;BME280;40364;52.270;10.546;2023-05-23T12:33:39;100720.06;;;21.04;71.97
54455;BME280;40364;52.270;10.546;2023-05-23T12:36:06;100720.28;;;20.43;72.14
54455;BME280;40364;52.270;10.546;2023-05-23T12:38:33;100720.66;;;20.24;75.48
54455;BME280;40364;52.270;10.546;2023-05-23T12:41:09;100718.88;;;22.26;64.92
54455;BME280;40364;52.270;10.546;2023-05-23T12:43:39;100725.03;;;20.78;72.19
54455;BME280;40364;52.270;10.546;2023-05-23T12:46:06;100723.84;;;21.60;68.49